createdAt,value
2018-11-12T00:03:24.919Z,80.20
2018-11-12T00:08:17.561Z,80.08
2018-11-12T00:13:10.209Z,80.08
2018-11-12T00:18:02.831Z,79.68
2018-11-12T00:22:55.430Z,79.91
2018-11-12T00:27:48.082Z,79.88
2018-11-12T00:32:41.250Z,80.03
2018-11-12T00:37:33.837Z,79.82
2018-11-12T00:42:26.445Z,79.91
2018-11-12T00:47:19.017Z,80.20
2018-11-12T00:52:11.599Z,79.35
2018-11-12T00:57:04.371Z,79.61
2018-11-12T01:01:57.317Z,79.52
2018-11-12T01:06:50.079Z,79.23
2018-11-12T01:11:42.706Z,79.87
2018-11-12T01:16:35.409Z,79.60
2018-11-12T01:21:27.991Z,79.37
2018-11-12T01:26:20.569Z,79.28
2018-11-12T01:31:13.166Z,79.35
2018-11-12T01:36:06.693Z,79.35
2018-11-12T01:40:59.321Z,79.12
2018-11-12T01:45:51.934Z,79.11
2018-11-12T01:50:44.617Z,79.11
2018-11-12T01:55:37.256Z,79.40
2018-11-12T02:00:29.942Z,79.16
2018-11-12T02:05:22.545Z,79.09
2018-11-12T02:10:16.369Z,79.10
2018-11-12T02:15:14.658Z,78.97
2018-11-12T02:20:09.770Z,79.22
2018-11-12T02:25:02.399Z,79.17
2018-11-12T02:29:54.970Z,78.89
2018-11-12T02:34:47.557Z,78.69
2018-11-12T02:39:40.144Z,79.04
2018-11-12T02:44:32.786Z,79.43
2018-11-12T02:49:25.446Z,78.99
2018-11-12T02:54:18.149Z,79.28
2018-11-12T02:59:10.749Z,78.94
2018-11-12T03:04:03.726Z,79.02
2018-11-12T03:08:56.369Z,78.70
2018-11-12T03:13:49.020Z,78.96
2018-11-12T03:18:41.721Z,78.77
2018-11-12T03:23:34.385Z,79.14
2018-11-12T03:28:27.010Z,79.33
2018-11-12T03:33:19.648Z,79.48
2018-11-12T03:38:12.262Z,79.74
2018-11-12T03:43:05.313Z,79.36
2018-11-12T03:47:57.930Z,79.69
2018-11-12T03:52:50.534Z,79.24
2018-11-12T03:57:43.137Z,79.68
2018-11-12T04:02:35.790Z,79.53
2018-11-12T04:07:28.438Z,79.84
2018-11-12T04:12:21.079Z,79.85
2018-11-12T04:17:13.661Z,80.04
2018-11-12T04:22:06.331Z,80.53
2018-11-12T04:26:58.955Z,80.42
2018-11-12T04:31:51.556Z,80.06
2018-11-12T04:36:44.209Z,80.60
2018-11-12T04:41:36.917Z,80.61
2018-11-12T04:46:29.606Z,81.09
2018-11-12T04:51:22.231Z,80.89
2018-11-12T04:56:14.846Z,81.05
2018-11-12T05:01:07.648Z,81.40
2018-11-12T05:06:00.236Z,81.22
2018-11-12T05:10:52.833Z,81.58
2018-11-12T05:15:45.429Z,81.64
2018-11-12T05:20:38.245Z,81.74
2018-11-12T05:25:30.965Z,81.82
2018-11-12T05:30:24.737Z,81.81
2018-11-12T05:35:19.674Z,81.81
2018-11-12T05:40:15.132Z,82.50
2018-11-12T05:45:07.773Z,81.76
2018-11-12T05:50:00.411Z,82.26
2018-11-12T05:54:53.129Z,82.22
2018-11-12T05:59:46.278Z,82.32
2018-11-12T06:04:38.915Z,82.62
2018-11-12T06:09:31.656Z,82.86
2018-11-12T06:14:24.280Z,82.54
2018-11-12T06:19:17.128Z,82.67
2018-11-12T06:24:09.975Z,82.37
2018-11-12T06:29:02.727Z,82.37
2018-11-12T06:33:55.615Z,82.69
2018-11-12T06:38:48.358Z,82.67
2018-11-12T06:43:41.108Z,82.51
2018-11-12T06:48:33.865Z,82.57
2018-11-12T06:53:26.790Z,82.77
2018-11-12T06:58:19.486Z,82.57
2018-11-12T07:03:12.271Z,82.36
2018-11-12T07:08:05.193Z,82.48
2018-11-12T07:12:58.568Z,82.47
2018-11-12T07:17:57.378Z,82.86
2018-11-12T07:23:05.229Z,82.28
2018-11-12T07:27:58.157Z,82.20
2018-11-12T07:32:51.724Z,81.75
2018-11-12T07:37:45.488Z,81.92
2018-11-12T07:42:38.785Z,82.18
2018-11-12T07:47:31.460Z,82.51
2018-11-12T07:52:24.069Z,81.72
2018-11-12T07:57:16.715Z,82.17
2018-11-12T08:02:09.385Z,81.95
2018-11-12T08:07:02.029Z,81.90
2018-11-12T08:11:54.741Z,81.37
2018-11-12T08:16:47.406Z,81.43
2018-11-12T08:21:40.091Z,81.29
2018-11-12T08:26:32.674Z,81.26
2018-11-12T08:31:25.328Z,80.99
2018-11-12T08:36:18.092Z,81.17
2018-11-12T08:41:11.216Z,81.19
2018-11-12T08:46:04.244Z,81.04
2018-11-12T08:50:58.158Z,80.94
2018-11-12T08:55:50.862Z,80.75
2018-11-12T09:00:43.471Z,80.78
2018-11-12T09:05:36.393Z,80.34
2018-11-12T09:10:33.204Z,80.75
2018-11-12T09:15:26.090Z,80.51
2018-11-12T09:20:20.134Z,80.81
2018-11-12T09:25:14.568Z,80.60
2018-11-12T09:30:15.168Z,80.61
2018-11-12T09:35:09.496Z,80.60
2018-11-12T09:40:02.099Z,80.00
2018-11-12T09:44:54.854Z,79.89
2018-11-12T09:49:48.325Z,79.58
2018-11-12T09:54:41.026Z,79.98
2018-11-12T09:59:33.651Z,78.72
2018-11-12T10:04:27.164Z,78.26
2018-11-12T10:09:21.692Z,78.31
2018-11-12T10:14:13.750Z,77.51
2018-11-12T10:19:04.216Z,77.67
2018-11-12T10:23:56.805Z,77.29
2018-11-12T10:28:49.384Z,76.82
2018-11-12T10:33:42.152Z,76.08
2018-11-12T10:38:35.929Z,76.54
2018-11-12T10:43:28.559Z,75.40
2018-11-12T10:48:21.243Z,75.41
2018-11-12T10:53:13.862Z,75.77
2018-11-12T10:58:06.484Z,75.69
2018-11-12T11:03:07.513Z,74.64
2018-11-12T11:08:00.186Z,74.33
2018-11-12T11:12:53.144Z,74.55
2018-11-12T11:17:46.127Z,74.90
2018-11-12T11:22:39.023Z,74.45
2018-11-12T11:27:31.635Z,75.29
2018-11-12T11:32:24.228Z,75.04
2018-11-12T11:37:16.897Z,76.13
2018-11-12T11:42:09.588Z,75.61
2018-11-12T11:47:02.297Z,75.66
2018-11-12T11:51:55.043Z,75.18
2018-11-12T11:56:47.981Z,75.53
2018-11-12T12:01:40.575Z,74.59
2018-11-12T12:06:33.410Z,74.34
2018-11-12T12:11:26.082Z,73.67
2018-11-12T12:16:18.729Z,73.70
2018-11-12T12:21:11.444Z,73.59
2018-11-12T12:26:04.295Z,72.92
2018-11-12T12:30:56.938Z,72.92
2018-11-12T12:35:49.761Z,72.54
2018-11-12T12:40:42.442Z,72.25
2018-11-12T12:45:35.159Z,71.93
2018-11-12T12:50:27.680Z,72.13
2018-11-12T12:55:20.403Z,71.40
2018-11-12T13:00:16.061Z,70.80
2018-11-12T13:05:08.794Z,70.82
2018-11-12T13:10:01.540Z,70.08
2018-11-12T13:14:54.298Z,69.81
2018-11-12T13:19:46.789Z,70.36
2018-11-12T13:24:39.513Z,69.99
2018-11-12T13:29:32.214Z,69.14
2018-11-12T13:34:24.927Z,68.75
2018-11-12T13:39:17.682Z,68.85
2018-11-12T13:44:10.292Z,68.50
2018-11-12T13:49:03.376Z,68.30
2018-11-12T13:53:56.237Z,68.86
2018-11-12T13:58:48.894Z,68.51
2018-11-12T14:03:41.725Z,68.46
2018-11-12T14:08:34.545Z,68.72
2018-11-12T14:13:27.169Z,68.13
2018-11-12T14:18:19.940Z,68.12
2018-11-12T14:23:12.695Z,67.91
2018-11-12T14:28:05.675Z,68.66
2018-11-12T14:32:58.538Z,67.82
2018-11-12T14:37:51.175Z,67.81
2018-11-12T14:42:44.178Z,68.45
2018-11-12T14:47:36.828Z,68.47
2018-11-12T14:52:29.499Z,68.01
2018-11-12T14:57:22.352Z,67.97
2018-11-12T15:02:15.149Z,68.19
2018-11-12T15:07:07.805Z,68.22
2018-11-12T15:12:00.390Z,68.10
2018-11-12T15:16:53.226Z,68.68
2018-11-12T15:21:45.843Z,68.51
2018-11-12T15:26:38.517Z,69.08
2018-11-12T15:31:31.129Z,69.00
2018-11-12T15:36:23.767Z,68.77
2018-11-12T15:41:16.495Z,68.85
2018-11-12T15:46:09.145Z,69.21
2018-11-12T15:51:01.926Z,69.88
2018-11-12T15:55:54.829Z,69.64
2018-11-12T16:00:47.412Z,69.52
2018-11-12T16:05:40.386Z,69.69
2018-11-12T16:10:33.024Z,69.81
2018-11-12T16:15:25.698Z,69.53
2018-11-12T16:20:24.657Z,70.14
2018-11-12T16:25:17.850Z,70.36
2018-11-12T16:30:11.454Z,69.95
2018-11-12T16:35:05.819Z,70.28
2018-11-12T16:39:58.473Z,70.24
2018-11-12T16:44:51.293Z,70.32
2018-11-12T16:49:43.893Z,70.44
2018-11-12T16:54:36.585Z,69.70
2018-11-12T16:59:29.172Z,69.87
2018-11-12T17:04:21.781Z,70.22
2018-11-12T17:09:14.317Z,70.13
2018-11-12T17:14:07.537Z,70.00
2018-11-12T17:19:00.077Z,69.66
2018-11-12T17:23:52.666Z,69.54
2018-11-12T17:28:45.356Z,69.95
2018-11-12T17:33:37.998Z,69.61
2018-11-12T17:38:30.621Z,69.34
2018-11-12T17:43:23.299Z,69.83
2018-11-12T17:48:15.841Z,69.75
2018-11-12T17:53:08.485Z,69.80
2018-11-12T17:58:01.127Z,69.34
2018-11-12T18:02:53.745Z,69.24
2018-11-12T18:07:46.688Z,69.26
2018-11-12T18:12:39.292Z,69.15
2018-11-12T18:17:31.893Z,69.06
2018-11-12T18:22:24.477Z,68.92
2018-11-12T18:27:17.153Z,69.07
2018-11-12T18:32:09.957Z,68.76
2018-11-12T18:37:02.758Z,68.40
2018-11-12T18:41:55.393Z,68.80
2018-11-12T18:46:48.082Z,68.84
2018-11-12T18:51:40.795Z,68.10
2018-11-12T18:56:33.523Z,68.80
2018-11-12T19:01:26.333Z,68.75
2018-11-12T19:06:18.991Z,68.23
2018-11-12T19:11:11.733Z,68.24
2018-11-12T19:16:05.156Z,68.21
2018-11-12T19:20:57.769Z,68.49
2018-11-12T19:25:50.411Z,68.53
2018-11-12T19:30:43.055Z,68.34
2018-11-12T19:35:35.672Z,67.96
2018-11-12T19:40:29.450Z,68.65
2018-11-12T19:45:22.106Z,68.77
2018-11-12T19:50:16.087Z,68.34
2018-11-12T19:55:08.895Z,68.69
2018-11-12T20:00:02.254Z,68.94
2018-11-12T20:04:54.948Z,68.56
2018-11-12T20:14:39.852Z,68.95
2018-11-12T20:19:32.509Z,68.46
2018-11-12T20:24:25.289Z,68.31
2018-11-12T20:29:17.950Z,68.43
2018-11-12T20:34:10.725Z,68.76
2018-11-12T20:39:05.373Z,68.69
2018-11-12T20:43:58.295Z,68.44
2018-11-12T20:48:50.962Z,68.50
2018-11-12T20:53:43.600Z,68.15
2018-11-12T20:58:36.395Z,68.25
2018-11-12T21:03:29.081Z,68.53
2018-11-12T21:08:21.782Z,68.83
2018-11-12T21:13:14.437Z,68.37
2018-11-12T21:18:07.065Z,68.80
2018-11-12T21:22:59.674Z,68.77
2018-11-12T21:27:52.328Z,68.57
2018-11-12T21:32:45.242Z,68.28
2018-11-12T21:37:37.934Z,68.87
2018-11-12T21:42:30.606Z,69.07
2018-11-12T21:47:23.193Z,68.51
2018-11-12T21:52:15.814Z,68.27
2018-11-12T21:57:08.474Z,68.48
2018-11-12T22:02:01.108Z,68.35
2018-11-12T22:06:53.725Z,68.73
2018-11-12T22:11:46.474Z,68.68
2018-11-12T22:16:39.128Z,68.23
2018-11-12T22:21:31.789Z,67.85
2018-11-12T22:26:24.405Z,68.51
2018-11-12T22:31:16.976Z,69.35
2018-11-12T22:36:09.581Z,68.34
2018-11-12T22:41:02.222Z,68.44
2018-11-12T22:45:54.934Z,68.29
2018-11-12T22:50:47.483Z,68.93
2018-11-12T22:55:40.102Z,68.41
2018-11-12T23:00:38.785Z,68.47
2018-11-12T23:05:31.449Z,68.97
2018-11-12T23:10:24.041Z,68.42
2018-11-12T23:15:17.278Z,68.71
2018-11-12T23:20:13.629Z,68.57
2018-11-12T23:25:06.866Z,68.46
2018-11-12T23:29:59.525Z,67.80
2018-11-12T23:34:52.129Z,68.48
2018-11-12T23:39:44.763Z,68.20
2018-11-12T23:44:37.369Z,68.93
2018-11-12T23:49:29.973Z,68.81
2018-11-12T23:54:22.568Z,68.93
2018-11-12T23:59:15.180Z,68.98
